createdAt,value
2023-02-18T00:00:17.898Z,5.57
2023-02-18T00:03:04.711Z,3.13
2023-02-18T00:05:51.308Z,6.93
2023-02-18T00:08:37.780Z,3.93
2023-02-18T00:11:26.093Z,2.70
2023-02-18T00:14:15.517Z,2.23
2023-02-18T00:17:02.190Z,2.43
2023-02-18T00:19:49.716Z,3.90
2023-02-18T00:22:36.672Z,4.73
2023-02-18T00:25:23.261Z,4.30
2023-02-18T00:28:11.453Z,2.27
2023-02-18T00:30:58.083Z,2.23
2023-02-18T00:33:44.979Z,6.17
2023-02-18T00:36:32.132Z,5.40
2023-02-18T00:39:18.709Z,5.57
2023-02-18T00:42:05.394Z,3.73
2023-02-18T00:44:53.430Z,4.23
2023-02-18T00:47:40.028Z,6.33
2023-02-18T00:50:26.474Z,3.63
2023-02-18T00:53:13.232Z,7.23
2023-02-18T00:55:59.982Z,9.52
2023-02-18T00:58:46.295Z,7.10
2023-02-18T01:01:35.215Z,2.93
2023-02-18T01:04:22.184Z,4.47
2023-02-18T01:07:10.344Z,7.53
2023-02-18T01:09:56.909Z,8.10
2023-02-18T01:12:43.368Z,7.17
2023-02-18T01:15:29.981Z,5.50
2023-02-18T01:18:17.721Z,4.60
2023-02-18T01:21:05.166Z,3.60
2023-02-18T01:23:51.601Z,7.70
2023-02-18T01:26:38.048Z,3.57
2023-02-18T01:29:24.946Z,7.97
2023-02-18T01:32:11.375Z,4.77
2023-02-18T01:35:04.778Z,5.10
2023-02-18T01:37:51.810Z,8.07
2023-02-18T01:40:46.935Z,5.17
2023-02-18T01:43:36.100Z,4.37
2023-02-18T01:46:23.281Z,5.63
2023-02-18T01:49:16.763Z,5.70
2023-02-18T01:52:08.115Z,6.37
2023-02-18T01:54:58.154Z,3.93
2023-02-18T01:57:45.167Z,4.47
2023-02-18T02:00:32.727Z,7.33
2023-02-18T02:03:19.253Z,8.47
2023-02-18T02:06:15.394Z,5.50
2023-02-18T02:09:05.237Z,4.70
2023-02-18T02:12:22.761Z,4.07
2023-02-18T02:15:26.295Z,4.73
2023-02-18T02:18:25.311Z,8.83
2023-02-18T02:22:03.451Z,5.50
2023-02-18T02:25:02.990Z,6.27
2023-02-18T02:28:27.880Z,3.33
2023-02-18T02:31:48.249Z,10.20
2023-02-18T02:34:54.180Z,7.20
2023-02-18T02:37:48.907Z,6.30
2023-02-18T02:40:43.090Z,4.63
2023-02-18T02:43:39.058Z,4.73
2023-02-18T02:46:31.639Z,8.20
2023-02-18T02:49:29.100Z,10.03
2023-02-18T02:52:21.970Z,11.83
2023-02-18T02:55:10.882Z,8.20
2023-02-18T02:57:57.856Z,7.07
2023-02-18T03:00:58.171Z,6.47
2023-02-18T03:04:05.780Z,4.43
2023-02-18T03:07:09.837Z,10.83
2023-02-18T03:10:15.919Z,5.43
2023-02-18T03:13:10.766Z,7.57
2023-02-18T03:16:00.400Z,7.20
2023-02-18T03:18:52.741Z,5.57
2023-02-18T03:21:43.282Z,7.27
2023-02-18T03:24:33.805Z,5.60
2023-02-18T03:27:25.916Z,4.97
2023-02-18T03:30:17.912Z,9.93
2023-02-18T03:33:06.680Z,7.00
2023-02-18T03:35:55.940Z,6.43
2023-02-18T03:38:49.693Z,5.13
2023-02-18T03:41:36.677Z,6.67
2023-02-18T03:44:25.731Z,9.67
2023-02-18T03:47:12.772Z,10.90
2023-02-18T03:49:59.461Z,10.33
2023-02-18T03:52:45.858Z,8.63
2023-02-18T03:55:32.236Z,6.40
2023-02-18T03:58:18.761Z,5.97
2023-02-18T04:01:06.816Z,8.60
2023-02-18T04:03:55.361Z,6.37
2023-02-18T04:06:41.618Z,4.43
2023-02-18T04:09:27.961Z,7.97
2023-02-18T04:12:14.596Z,6.40
2023-02-18T04:15:01.113Z,6.20
2023-02-18T04:17:49.151Z,6.90
2023-02-18T04:20:35.593Z,5.27
2023-02-18T04:23:22.067Z,8.77
2023-02-18T04:26:08.663Z,8.30
2023-02-18T04:28:55.369Z,7.67
2023-02-18T04:31:41.734Z,18.13
2023-02-18T04:34:29.770Z,5.83
2023-02-18T04:37:15.998Z,8.93
2023-02-18T04:40:02.746Z,8.77
2023-02-18T04:42:49.418Z,7.43
2023-02-18T04:45:35.880Z,8.43
2023-02-18T04:48:22.305Z,10.67
2023-02-18T04:51:10.150Z,11.50
2023-02-18T04:53:56.754Z,8.60
2023-02-18T04:56:43.060Z,8.40
2023-02-18T04:59:29.425Z,8.97
2023-02-18T05:02:15.612Z,7.63
2023-02-18T05:05:02.025Z,4.13
2023-02-18T05:07:50.207Z,12.90
2023-02-18T05:10:36.586Z,6.13
2023-02-18T05:13:23.348Z,8.27
2023-02-18T05:16:10.441Z,8.47
2023-02-18T05:18:57.009Z,6.30
2023-02-18T05:21:43.471Z,9.47
2023-02-18T05:24:31.347Z,8.47
2023-02-18T05:27:18.006Z,5.70
2023-02-18T05:30:04.903Z,7.27
2023-02-18T05:32:51.219Z,6.43
2023-02-18T05:35:37.718Z,11.47
2023-02-18T05:38:24.337Z,8.37
2023-02-18T05:41:12.414Z,14.13
2023-02-18T05:44:16.443Z,7.53
2023-02-18T05:47:04.937Z,11.90
2023-02-18T05:49:51.875Z,11.70
2023-02-18T05:52:38.743Z,10.53
2023-02-18T05:55:25.192Z,13.67
2023-02-18T05:58:13.683Z,11.43
2023-02-18T06:01:00.274Z,11.50
2023-02-18T06:03:46.744Z,14.17
2023-02-18T06:06:33.402Z,17.40
2023-02-18T06:09:19.963Z,7.43
2023-02-18T06:12:06.894Z,12.13
2023-02-18T06:14:54.830Z,15.63
2023-02-18T06:17:41.482Z,10.43
2023-02-18T06:20:27.824Z,14.47
2023-02-18T06:23:14.292Z,18.70
2023-02-18T06:26:00.936Z,14.53
2023-02-18T06:28:47.455Z,13.23
2023-02-18T06:31:35.202Z,10.20
2023-02-18T06:34:21.899Z,15.87
2023-02-18T06:37:08.349Z,12.50
2023-02-18T06:39:54.672Z,15.13
2023-02-18T06:42:41.248Z,13.63
2023-02-18T06:45:27.958Z,16.77
2023-02-18T06:48:16.881Z,16.07
2023-02-18T06:51:03.892Z,12.40
2023-02-18T06:53:50.387Z,13.77
2023-02-18T06:56:36.662Z,16.33
2023-02-18T06:59:23.057Z,18.27
2023-02-18T07:02:11.032Z,45.93
2023-02-18T07:04:58.988Z,31.23
2023-02-18T07:07:45.646Z,31.53
2023-02-18T07:10:31.940Z,40.07
2023-02-18T07:13:18.325Z,21.33
2023-02-18T07:16:04.647Z,20.47
2023-02-18T07:18:51.244Z,19.50
2023-02-18T07:21:39.053Z,21.13
2023-02-18T07:24:25.954Z,15.10
2023-02-18T07:27:12.712Z,18.10
2023-02-18T07:29:59.315Z,13.90
2023-02-18T07:32:46.033Z,18.07
2023-02-18T07:35:32.659Z,15.43
2023-02-18T07:38:20.443Z,17.60
2023-02-18T07:41:07.024Z,15.33
2023-02-18T07:43:53.287Z,16.77
2023-02-18T07:46:41.959Z,19.73
2023-02-18T07:49:28.712Z,16.80
2023-02-18T07:52:16.060Z,18.77
2023-02-18T07:55:04.080Z,23.67
2023-02-18T07:58:00.970Z,15.90
2023-02-18T08:00:49.438Z,17.63
2023-02-18T08:03:36.498Z,15.37
2023-02-18T08:06:27.156Z,16.30
2023-02-18T08:09:14.142Z,14.57
2023-02-18T08:12:02.244Z,12.50
2023-02-18T08:14:48.568Z,11.60
2023-02-18T08:17:34.988Z,7.97
2023-02-18T08:20:21.560Z,5.80
2023-02-18T08:23:08.315Z,5.57
2023-02-18T08:25:55.474Z,4.07
2023-02-18T08:28:43.515Z,3.97
2023-02-18T08:31:32.149Z,4.10
2023-02-18T08:34:18.583Z,2.87
2023-02-18T08:37:05.238Z,2.50
2023-02-18T08:39:52.648Z,2.13
2023-02-18T08:42:40.069Z,2.10
2023-02-18T08:45:28.249Z,2.27
2023-02-18T08:48:20.356Z,2.07
2023-02-18T08:51:18.006Z,2.40
2023-02-18T08:54:04.802Z,3.93
2023-02-18T08:56:51.312Z,2.53
2023-02-18T08:59:37.709Z,6.27
2023-02-18T09:02:25.561Z,5.60
2023-02-18T09:05:13.400Z,3.00
2023-02-18T09:08:00.294Z,4.40
2023-02-18T09:10:46.717Z,4.57
2023-02-18T09:13:34.099Z,4.77
2023-02-18T09:16:20.698Z,3.63
2023-02-18T09:19:08.907Z,3.90
2023-02-18T09:21:58.494Z,2.90
2023-02-18T09:24:47.058Z,3.33
2023-02-18T09:27:33.487Z,2.10
2023-02-18T09:30:20.144Z,3.70
2023-02-18T09:33:07.058Z,2.13
2023-02-18T09:35:54.759Z,2.80
2023-02-18T09:38:41.268Z,2.10
2023-02-18T09:41:34.859Z,5.07
2023-02-18T09:44:25.956Z,2.43
2023-02-18T09:47:16.596Z,1.97
2023-02-18T09:50:07.878Z,2.33
2023-02-18T09:52:56.207Z,2.53
2023-02-18T09:55:43.111Z,1.60
2023-02-18T09:58:32.553Z,1.63
2023-02-18T10:01:24.785Z,1.50
2023-02-18T10:04:16.622Z,1.20
2023-02-18T10:07:04.418Z,1.33
2023-02-18T10:09:55.121Z,2.30
2023-02-18T10:12:42.084Z,1.53
2023-02-18T10:15:32.475Z,1.27
2023-02-18T10:18:27.351Z,0.90
2023-02-18T10:21:17.921Z,1.23
2023-02-18T10:24:07.593Z,1.00
2023-02-18T10:26:56.497Z,2.47
2023-02-18T10:29:43.015Z,0.73
2023-02-18T10:32:36.885Z,1.30
2023-02-18T10:35:26.476Z,1.13
2023-02-18T10:38:21.348Z,0.73
2023-02-18T10:41:17.521Z,1.10
2023-02-18T10:44:14.387Z,0.87
2023-02-18T10:47:15.853Z,0.53
2023-02-18T10:50:06.650Z,1.00
2023-02-18T10:52:56.010Z,1.00
2023-02-18T10:55:44.506Z,1.10
2023-02-18T10:58:36.736Z,0.73
2023-02-18T11:01:24.966Z,1.30
2023-02-18T11:04:17.620Z,16.23
2023-02-18T11:07:07.395Z,1.80
2023-02-18T11:09:56.046Z,11.57
2023-02-18T11:12:47.378Z,2.00
2023-02-18T11:15:34.871Z,1.37
2023-02-18T11:18:33.358Z,1.97
2023-02-18T11:21:30.247Z,1.50
2023-02-18T11:24:17.849Z,1.20
2023-02-18T11:27:10.340Z,1.97
2023-02-18T11:30:05.814Z,1.00
2023-02-18T11:32:56.509Z,0.80
2023-02-18T11:35:51.210Z,0.77
2023-02-18T11:38:44.855Z,0.93
2023-02-18T11:41:36.494Z,1.80
2023-02-18T11:44:26.643Z,1.57
2023-02-18T11:47:23.436Z,2.63
2023-02-18T11:50:21.858Z,2.20
2023-02-18T11:53:29.904Z,1.63
2023-02-18T11:56:19.177Z,0.80
2023-02-18T11:59:07.093Z,1.43
2023-02-18T12:01:58.899Z,1.30
2023-02-18T12:04:49.588Z,3.40
2023-02-18T12:07:43.644Z,1.60
2023-02-18T12:10:34.797Z,2.87
2023-02-18T12:13:27.491Z,2.03
2023-02-18T12:16:23.852Z,0.73
2023-02-18T12:19:49.546Z,1.20
2023-02-18T12:22:43.738Z,1.70
2023-02-18T12:25:41.484Z,2.17
2023-02-18T12:28:46.736Z,1.50
2023-02-18T12:31:53.150Z,2.53
2023-02-18T12:35:00.786Z,3.13
2023-02-18T12:38:32.684Z,2.20
2023-02-18T12:41:41.520Z,2.10
2023-02-18T12:44:37.804Z,1.50
2023-02-18T12:47:48.894Z,1.07
2023-02-18T12:50:59.517Z,1.17
2023-02-18T12:53:57.475Z,2.23
2023-02-18T12:57:27.737Z,1.37
2023-02-18T13:00:45.513Z,1.47
2023-02-18T13:04:14.766Z,4.53
2023-02-18T13:07:30.656Z,1.90
2023-02-18T13:10:39.739Z,2.00
2023-02-18T13:13:32.295Z,1.70
2023-02-18T13:16:22.183Z,2.47
2023-02-18T13:19:17.826Z,1.90
2023-02-18T13:22:07.729Z,1.20
2023-02-18T13:24:59.826Z,1.23
2023-02-18T13:27:54.967Z,1.43
2023-02-18T13:30:49.130Z,3.57
2023-02-18T13:33:44.830Z,12.53
2023-02-18T13:36:45.717Z,2.00
2023-02-18T13:39:33.330Z,1.93
2023-02-18T13:42:36.342Z,1.07
2023-02-18T13:45:31.732Z,3.23
2023-02-18T13:48:29.241Z,1.43
2023-02-18T13:51:18.175Z,3.40
2023-02-18T13:54:17.029Z,3.77
2023-02-18T13:57:06.217Z,1.20
2023-02-18T13:59:58.304Z,2.67
2023-02-18T14:02:59.111Z,1.30
2023-02-18T14:05:47.356Z,2.20
2023-02-18T14:08:36.522Z,1.63
2023-02-18T14:11:41.918Z,1.60
2023-02-18T14:14:39.644Z,1.10
2023-02-18T14:17:35.763Z,0.90
2023-02-18T14:20:51.336Z,1.43
2023-02-18T14:23:43.886Z,1.50
2023-02-18T14:26:40.440Z,0.90
2023-02-18T14:29:32.762Z,3.23
2023-02-18T14:32:21.665Z,1.60
2023-02-18T14:35:27.067Z,1.87
2023-02-18T14:38:30.819Z,1.50
2023-02-18T14:41:29.900Z,2.27
2023-02-18T14:44:41.149Z,2.23
2023-02-18T14:47:43.415Z,2.33
2023-02-18T14:50:34.489Z,1.43
2023-02-18T14:53:24.356Z,1.90
2023-02-18T14:56:13.957Z,1.63
2023-02-18T14:59:04.424Z,1.37
2023-02-18T15:01:50.934Z,1.20
2023-02-18T15:04:37.932Z,1.50
2023-02-18T15:07:24.594Z,1.40
2023-02-18T15:10:16.909Z,1.60
2023-02-18T15:13:03.999Z,1.63
2023-02-18T15:15:53.169Z,1.70
2023-02-18T15:18:42.778Z,1.37
2023-02-18T15:21:32.182Z,2.53
2023-02-18T15:24:25.948Z,1.20
2023-02-18T15:27:17.010Z,1.50
2023-02-18T15:30:22.797Z,1.50
2023-02-18T15:33:14.219Z,1.20
2023-02-18T15:36:05.221Z,7.67
2023-02-18T15:38:51.728Z,4.63
2023-02-18T15:41:38.442Z,2.40
2023-02-18T15:44:29.026Z,1.13
2023-02-18T15:47:17.432Z,2.43
2023-02-18T15:50:04.611Z,1.40
2023-02-18T15:52:54.713Z,2.13
2023-02-18T15:55:43.064Z,1.47
2023-02-18T15:58:32.633Z,1.47
2023-02-18T16:01:29.320Z,2.20
2023-02-18T16:04:16.668Z,1.63
2023-02-18T16:07:18.950Z,1.40
2023-02-18T16:10:19.118Z,2.47
2023-02-18T16:13:06.657Z,2.47
2023-02-18T16:15:54.372Z,1.60
2023-02-18T16:18:43.184Z,1.70
2023-02-18T16:21:38.748Z,1.43
2023-02-18T16:24:27.399Z,1.50
2023-02-18T16:27:17.629Z,2.33
2023-02-18T16:30:12.264Z,2.20
2023-02-18T16:32:59.401Z,3.10
2023-02-18T16:35:50.336Z,2.10
2023-02-18T16:38:37.321Z,1.90
2023-02-18T16:41:23.727Z,1.83
2023-02-18T16:44:15.074Z,2.30
2023-02-18T16:47:01.825Z,6.47
2023-02-18T16:49:50.785Z,6.93
2023-02-18T16:52:38.496Z,4.07
2023-02-18T16:55:27.201Z,2.43
2023-02-18T16:58:14.033Z,2.37
2023-02-18T17:01:00.632Z,8.80
2023-02-18T17:03:48.857Z,2.77
2023-02-18T17:06:38.196Z,2.83
2023-02-18T17:09:27.440Z,2.37
2023-02-18T17:12:14.484Z,3.83
2023-02-18T17:15:01.165Z,2.43
2023-02-18T17:17:47.623Z,2.40
2023-02-18T17:20:34.555Z,3.70
2023-02-18T17:23:22.942Z,2.83
2023-02-18T17:26:17.758Z,4.77
2023-02-18T17:29:08.916Z,2.87
2023-02-18T17:32:06.718Z,3.50
2023-02-18T17:34:53.102Z,4.13
2023-02-18T17:37:39.492Z,30.03
2023-02-18T17:40:27.634Z,3.53
2023-02-18T17:43:17.137Z,2.87
2023-02-18T17:46:04.175Z,4.03
2023-02-18T17:48:50.882Z,5.03
2023-02-18T17:51:39.276Z,4.83
2023-02-18T17:54:28.259Z,6.37
2023-02-18T17:57:15.008Z,6.43
2023-02-18T18:00:02.665Z,8.43
2023-02-18T18:02:49.056Z,7.17
2023-02-18T18:05:36.863Z,8.03
2023-02-18T18:08:23.191Z,7.30
2023-02-18T18:11:14.487Z,7.30
2023-02-18T18:14:01.253Z,5.77
2023-02-18T18:16:49.147Z,7.80
2023-02-18T18:19:37.976Z,4.90
2023-02-18T18:22:24.429Z,5.93
2023-02-18T18:25:22.740Z,5.37
2023-02-18T18:28:09.830Z,27.27
2023-02-18T18:30:57.647Z,7.67
2023-02-18T18:33:48.751Z,7.17
2023-02-18T18:36:35.143Z,4.47
2023-02-18T18:39:22.082Z,5.70
2023-02-18T18:42:11.467Z,4.33
2023-02-18T18:44:58.399Z,6.83
2023-02-18T18:47:44.811Z,6.27
2023-02-18T18:50:34.180Z,6.40
2023-02-18T18:53:23.218Z,8.23
2023-02-18T18:56:12.649Z,5.60
2023-02-18T18:58:59.041Z,19.67
2023-02-18T19:01:45.723Z,6.27
2023-02-18T19:04:32.508Z,5.73
2023-02-18T19:07:20.226Z,7.40
2023-02-18T19:10:06.967Z,5.50
2023-02-18T19:12:53.280Z,3.90
2023-02-18T19:15:39.816Z,5.87
2023-02-18T19:18:26.209Z,3.90
2023-02-18T19:21:13.191Z,7.30
2023-02-18T19:24:01.364Z,5.80
2023-02-18T19:26:47.586Z,3.50
2023-02-18T19:29:33.945Z,4.13
2023-02-18T19:32:20.526Z,5.37
2023-02-18T19:35:07.321Z,4.27
2023-02-18T19:37:53.909Z,11.77
2023-02-18T19:40:42.502Z,5.77
2023-02-18T19:43:28.828Z,6.20
2023-02-18T19:46:18.282Z,4.47
2023-02-18T19:49:04.862Z,4.80
2023-02-18T19:51:51.255Z,4.83
2023-02-18T19:54:37.702Z,5.40
2023-02-18T19:57:25.891Z,5.67
2023-02-18T20:00:14.738Z,5.90
2023-02-18T20:03:01.196Z,5.80
2023-02-18T20:05:47.469Z,5.77
2023-02-18T20:08:36.880Z,6.30
2023-02-18T20:11:23.263Z,6.30
2023-02-18T20:14:10.912Z,11.27
2023-02-18T20:16:57.872Z,6.93
2023-02-18T20:19:44.761Z,6.57
2023-02-18T20:22:31.044Z,6.43
2023-02-18T20:25:17.462Z,6.33
2023-02-18T20:28:04.141Z,7.47
2023-02-18T20:30:51.868Z,7.03
2023-02-18T20:33:38.494Z,6.90
2023-02-18T20:36:25.250Z,7.17
2023-02-18T20:39:16.185Z,8.60
2023-02-18T20:42:11.132Z,10.27
2023-02-18T20:45:02.358Z,9.83
2023-02-18T20:47:50.199Z,9.10
2023-02-18T20:50:36.728Z,10.87
2023-02-18T20:53:23.318Z,9.17
2023-02-18T20:56:10.579Z,14.20
2023-02-18T20:58:57.369Z,10.90
2023-02-18T21:01:44.751Z,10.13
2023-02-18T21:04:32.488Z,11.17
2023-02-18T21:07:19.047Z,9.93
2023-02-18T21:10:06.526Z,10.20
2023-02-18T21:12:53.316Z,11.57
2023-02-18T21:15:39.711Z,11.33
2023-02-18T21:18:26.239Z,11.90
2023-02-18T21:21:14.866Z,11.90
2023-02-18T21:24:01.418Z,10.43
2023-02-18T21:26:47.796Z,13.37
2023-02-18T21:29:34.424Z,11.73
2023-02-18T21:32:21.254Z,15.63
2023-02-18T21:35:08.048Z,15.77
2023-02-18T21:37:55.738Z,14.30
2023-02-18T21:40:43.698Z,12.07
2023-02-18T21:43:30.300Z,16.50
2023-02-18T21:46:19.131Z,13.57
2023-02-18T21:49:09.445Z,13.97
2023-02-18T21:52:00.300Z,15.60
2023-02-18T21:54:48.916Z,15.70
2023-02-18T21:57:35.818Z,10.33
2023-02-18T22:00:23.255Z,13.37
2023-02-18T22:03:10.047Z,15.00
2023-02-18T22:05:56.517Z,13.60
2023-02-18T22:08:42.963Z,65.57
2023-02-18T22:11:31.337Z,15.97
2023-02-18T22:14:18.347Z,13.33
2023-02-18T22:17:05.131Z,12.60
2023-02-18T22:19:51.816Z,14.50
2023-02-18T22:22:38.153Z,14.07
2023-02-18T22:25:24.560Z,13.77
2023-02-18T22:28:12.434Z,11.40
2023-02-18T22:30:59.065Z,12.00
2023-02-18T22:33:45.392Z,10.47
2023-02-18T22:36:32.969Z,15.53
2023-02-18T22:39:19.803Z,12.50
2023-02-18T22:42:06.404Z,11.60
2023-02-18T22:44:54.252Z,12.47
2023-02-18T22:47:40.865Z,18.33
2023-02-18T22:50:27.305Z,13.00
2023-02-18T22:53:13.920Z,16.33
2023-02-18T22:56:01.721Z,13.87
2023-02-18T22:58:49.680Z,12.67
2023-02-18T23:01:39.867Z,11.67
2023-02-18T23:04:26.569Z,13.47
2023-02-18T23:07:12.860Z,11.07
2023-02-18T23:09:59.226Z,16.57
2023-02-18T23:12:45.716Z,9.03
2023-02-18T23:15:32.099Z,10.97
2023-02-18T23:18:19.767Z,11.97
2023-02-18T23:21:21.319Z,12.33
2023-02-18T23:24:08.316Z,12.80
2023-02-18T23:26:54.853Z,9.60
2023-02-18T23:29:41.544Z,10.63
2023-02-18T23:32:30.522Z,11.37
2023-02-18T23:35:18.862Z,10.30
2023-02-18T23:38:05.488Z,11.47
2023-02-18T23:40:52.200Z,9.40
2023-02-18T23:43:38.722Z,8.43
2023-02-18T23:46:27.302Z,13.57
2023-02-18T23:49:16.394Z,9.67
2023-02-18T23:52:04.154Z,10.27
2023-02-18T23:54:50.566Z,12.17
2023-02-18T23:57:37.327Z,9.20
